createdAt,value
2017-10-20T00:02:23.221Z,13.95
2017-10-20T00:04:50.935Z,14.03
2017-10-20T00:07:19.198Z,14.07
2017-10-20T00:09:46.928Z,13.96
2017-10-20T00:12:14.827Z,14.00
2017-10-20T00:14:44.523Z,14.09
2017-10-20T00:17:14.528Z,14.03
2017-10-20T00:19:43.706Z,14.18
2017-10-20T00:22:12.538Z,14.15
2017-10-20T00:24:41.313Z,14.12
2017-10-20T00:27:10.092Z,14.10
2017-10-20T00:29:37.971Z,14.15
2017-10-20T00:32:06.340Z,14.15
2017-10-20T00:34:34.281Z,13.83
2017-10-20T00:37:02.875Z,14.00
2017-10-20T00:39:31.543Z,13.98
2017-10-20T00:42:00.367Z,13.96
2017-10-20T00:44:28.236Z,13.97
2017-10-20T00:46:55.948Z,14.20
2017-10-20T00:49:23.511Z,14.03
2017-10-20T00:51:51.265Z,14.00
2017-10-20T00:54:19.776Z,14.00
2017-10-20T00:56:47.679Z,14.02
2017-10-20T00:59:15.931Z,14.02
2017-10-20T01:01:43.509Z,14.10
2017-10-20T01:04:11.109Z,14.14
2017-10-20T01:06:40.774Z,14.08
2017-10-20T01:09:10.260Z,14.21
2017-10-20T01:11:37.851Z,14.18
2017-10-20T01:14:05.429Z,13.95
2017-10-20T01:16:34.030Z,14.19
2017-10-20T01:19:01.575Z,14.14
2017-10-20T01:21:29.207Z,14.06
2017-10-20T01:23:56.789Z,14.19
2017-10-20T01:26:24.446Z,14.10
2017-10-20T01:28:52.578Z,14.31
2017-10-20T01:31:21.056Z,14.43
2017-10-20T01:33:48.792Z,14.42
2017-10-20T01:38:51.728Z,14.46
2017-10-20T01:41:20.760Z,14.40
2017-10-20T01:43:50.143Z,14.09
2017-10-20T01:46:17.892Z,14.50
2017-10-20T01:48:47.205Z,14.47
2017-10-20T01:51:14.998Z,14.35
2017-10-20T01:53:42.983Z,14.32
2017-10-20T01:56:12.531Z,14.36
2017-10-20T01:58:40.255Z,14.37
2017-10-20T02:01:08.036Z,14.38
2017-10-20T02:03:35.943Z,14.46
2017-10-20T02:06:03.785Z,14.47
2017-10-20T02:08:32.654Z,14.49
2017-10-20T02:11:01.452Z,14.13
2017-10-20T02:13:29.851Z,14.34
2017-10-20T02:15:57.469Z,14.29
2017-10-20T02:18:26.193Z,14.35
2017-10-20T02:20:53.917Z,14.33
2017-10-20T02:23:21.539Z,13.81
2017-10-20T02:25:49.392Z,14.44
2017-10-20T02:28:18.332Z,14.35
2017-10-20T02:30:45.991Z,14.42
2017-10-20T02:33:14.525Z,14.54
2017-10-20T02:35:42.247Z,14.64
2017-10-20T02:38:11.032Z,13.80
2017-10-20T02:40:39.979Z,14.58
2017-10-20T02:43:08.336Z,14.54
2017-10-20T02:45:36.688Z,14.65
2017-10-20T02:48:04.399Z,14.64
2017-10-20T02:50:33.034Z,14.61
2017-10-20T02:53:01.108Z,14.54
2017-10-20T02:55:30.729Z,14.40
2017-10-20T02:57:58.870Z,14.42
2017-10-20T03:00:27.401Z,14.59
2017-10-20T03:02:55.238Z,14.37
2017-10-20T03:05:22.828Z,14.39
2017-10-20T03:07:50.445Z,14.29
2017-10-20T03:10:18.046Z,14.35
2017-10-20T03:12:45.610Z,14.33
2017-10-20T03:15:15.083Z,14.38
2017-10-20T03:17:42.696Z,14.36
2017-10-20T03:20:10.255Z,14.31
2017-10-20T03:22:37.812Z,14.38
2017-10-20T03:25:05.398Z,14.21
2017-10-20T03:27:33.058Z,14.12
2017-10-20T03:30:02.203Z,14.22
2017-10-20T03:32:30.133Z,13.62
2017-10-20T03:34:58.835Z,14.10
2017-10-20T03:37:26.649Z,14.00
2017-10-20T03:39:55.067Z,14.06
2017-10-20T03:42:23.572Z,14.18
2017-10-20T03:44:51.268Z,14.14
2017-10-20T03:47:19.022Z,14.17
2017-10-20T03:49:46.677Z,14.18
2017-10-20T03:52:15.333Z,14.21
2017-10-20T03:54:43.743Z,14.19
2017-10-20T03:57:12.188Z,14.07
2017-10-20T03:59:40.769Z,14.12
2017-10-20T04:02:08.502Z,14.12
2017-10-20T04:04:36.285Z,14.15
2017-10-20T04:07:04.832Z,14.05
2017-10-20T04:09:32.405Z,14.06
2017-10-20T04:12:00.054Z,14.13
2017-10-20T04:14:31.115Z,14.18
2017-10-20T04:16:59.469Z,14.02
2017-10-20T04:19:26.993Z,14.09
2017-10-20T04:21:54.789Z,14.04
2017-10-20T04:24:22.359Z,14.07
2017-10-20T04:26:49.976Z,14.00
2017-10-20T04:29:18.250Z,13.91
2017-10-20T04:31:45.889Z,13.78
2017-10-20T04:34:13.503Z,13.86
2017-10-20T04:36:41.054Z,13.78
2017-10-20T04:39:09.565Z,13.75
2017-10-20T04:41:37.114Z,13.83
2017-10-20T04:44:04.792Z,13.80
2017-10-20T04:46:32.387Z,13.81
2017-10-20T04:49:00.098Z,13.83
2017-10-20T04:51:28.479Z,13.84
2017-10-20T04:53:56.225Z,13.74
2017-10-20T04:56:23.745Z,13.66
2017-10-20T04:58:51.545Z,13.50
2017-10-20T05:01:19.083Z,13.48
2017-10-20T05:03:47.212Z,13.56
2017-10-20T05:06:14.923Z,13.61
2017-10-20T05:08:42.531Z,13.61
2017-10-20T05:11:13.530Z,13.68
2017-10-20T05:13:41.877Z,13.60
2017-10-20T05:16:09.707Z,13.52
2017-10-20T05:18:38.051Z,13.53
2017-10-20T05:21:05.635Z,13.54
2017-10-20T05:23:33.153Z,13.68
2017-10-20T05:26:00.778Z,13.63
2017-10-20T05:28:29.287Z,13.66
2017-10-20T05:30:57.746Z,13.64
2017-10-20T05:33:25.657Z,13.74
2017-10-20T05:35:53.207Z,13.82
2017-10-20T05:38:20.804Z,13.66
2017-10-20T05:40:48.317Z,13.50
2017-10-20T05:43:15.796Z,13.55
2017-10-20T05:45:43.292Z,13.65
2017-10-20T05:48:10.848Z,13.66
2017-10-20T05:50:38.388Z,13.60
2017-10-20T05:53:05.912Z,13.62
2017-10-20T05:55:33.473Z,13.75
2017-10-20T05:58:01.078Z,13.82
2017-10-20T06:00:28.775Z,13.91
2017-10-20T06:02:59.164Z,14.02
2017-10-20T06:05:26.722Z,14.03
2017-10-20T06:07:54.345Z,13.97
2017-10-20T06:10:21.976Z,13.93
2017-10-20T06:12:49.473Z,13.94
2017-10-20T06:15:17.063Z,14.00
2017-10-20T06:17:44.572Z,14.07
2017-10-20T06:20:12.124Z,14.16
2017-10-20T06:22:39.638Z,14.24
2017-10-20T06:25:07.194Z,14.28
2017-10-20T06:27:34.740Z,14.43
2017-10-20T06:30:02.282Z,14.15
2017-10-20T06:32:29.851Z,14.13
2017-10-20T06:34:57.410Z,14.22
2017-10-20T06:37:24.967Z,14.35
2017-10-20T06:39:52.483Z,14.37
2017-10-20T06:42:20.040Z,14.37
2017-10-20T06:44:47.602Z,14.52
2017-10-20T06:47:15.195Z,14.70
2017-10-20T06:49:42.791Z,15.06
2017-10-20T06:52:10.392Z,15.18
2017-10-20T06:54:37.969Z,15.30
2017-10-20T06:57:05.530Z,15.47
2017-10-20T06:59:33.162Z,15.86
2017-10-20T07:02:00.734Z,15.18
2017-10-20T07:04:28.620Z,15.23
2017-10-20T07:06:56.175Z,15.40
2017-10-20T07:09:24.665Z,15.46
2017-10-20T07:11:52.225Z,15.42
2017-10-20T07:14:19.780Z,15.23
2017-10-20T07:16:47.485Z,15.42
2017-10-20T07:19:16.476Z,15.30
2017-10-20T07:21:43.994Z,15.84
2017-10-20T07:24:11.808Z,15.94
2017-10-20T07:26:39.413Z,15.85
2017-10-20T07:29:07.089Z,15.85
2017-10-20T07:31:34.683Z,15.95
2017-10-20T07:34:03.239Z,16.00
2017-10-20T07:36:32.104Z,16.07
2017-10-20T07:39:02.477Z,16.21
2017-10-20T07:41:30.077Z,16.27
2017-10-20T07:43:57.625Z,16.31
2017-10-20T07:46:26.113Z,15.94
2017-10-20T07:48:53.982Z,15.97
2017-10-20T07:51:21.517Z,16.05
2017-10-20T07:53:49.049Z,16.06
2017-10-20T07:56:16.552Z,16.16
2017-10-20T07:58:44.131Z,16.14
2017-10-20T08:01:11.649Z,15.93
2017-10-20T08:03:39.181Z,16.20
2017-10-20T08:06:06.762Z,16.30
2017-10-20T08:08:34.539Z,16.37
2017-10-20T08:11:02.082Z,16.44
2017-10-20T08:13:29.714Z,16.45
2017-10-20T08:15:57.248Z,16.37
2017-10-20T08:18:25.464Z,16.19
2017-10-20T08:20:53.027Z,16.37
2017-10-20T08:23:20.587Z,16.47
2017-10-20T08:25:50.424Z,16.42
2017-10-20T08:28:17.948Z,16.54
2017-10-20T08:30:45.816Z,16.58
2017-10-20T08:33:13.372Z,16.66
2017-10-20T08:35:41.707Z,16.54
2017-10-20T08:38:09.388Z,16.70
2017-10-20T08:40:36.958Z,16.70
2017-10-20T08:43:04.518Z,16.66
2017-10-20T08:45:32.026Z,16.82
2017-10-20T08:47:59.534Z,16.81
2017-10-20T08:50:27.108Z,16.83
2017-10-20T08:52:54.633Z,17.09
2017-10-20T08:55:22.204Z,17.13
2017-10-20T08:57:50.563Z,17.30
2017-10-20T09:00:18.961Z,17.16
2017-10-20T09:02:47.357Z,17.24
2017-10-20T09:05:14.876Z,17.57
2017-10-20T09:07:43.179Z,17.65
2017-10-20T09:10:10.769Z,17.94
2017-10-20T09:12:41.091Z,18.00
2017-10-20T09:15:08.631Z,18.17
2017-10-20T09:17:36.175Z,18.33
2017-10-20T09:20:03.735Z,18.25
2017-10-20T09:22:31.292Z,18.21
2017-10-20T09:24:58.858Z,18.44
2017-10-20T09:27:26.445Z,18.86
2017-10-20T09:29:54.003Z,18.94
2017-10-20T09:32:21.562Z,19.12
2017-10-20T09:34:49.058Z,18.99
2017-10-20T09:37:16.696Z,19.51
2017-10-20T09:39:44.260Z,19.62
2017-10-20T09:42:11.821Z,19.75
2017-10-20T09:44:39.407Z,19.78
2017-10-20T09:47:07.742Z,19.62
2017-10-20T09:49:36.187Z,19.68
2017-10-20T09:52:03.718Z,19.84
2017-10-20T09:54:31.279Z,20.58
2017-10-20T09:56:58.944Z,21.17
2017-10-20T09:59:26.545Z,21.55
2017-10-20T10:01:54.667Z,21.54
2017-10-20T10:04:22.296Z,22.09
2017-10-20T10:06:49.913Z,21.67
2017-10-20T10:09:17.443Z,21.61
2017-10-20T10:11:44.947Z,21.82
2017-10-20T10:14:12.440Z,21.68
2017-10-20T10:16:40.008Z,21.48
2017-10-20T10:19:07.513Z,21.77
2017-10-20T10:21:35.124Z,22.37
2017-10-20T10:24:02.585Z,22.92
2017-10-20T10:26:30.110Z,23.55
2017-10-20T10:28:59.143Z,23.71
2017-10-20T10:31:27.921Z,23.84
2017-10-20T10:33:55.952Z,23.29
2017-10-20T10:36:23.632Z,22.69
2017-10-20T10:38:51.448Z,22.00
2017-10-20T10:41:19.073Z,21.90
2017-10-20T10:43:47.147Z,21.56
2017-10-20T10:46:15.127Z,21.71
2017-10-20T10:48:45.803Z,21.73
2017-10-20T10:51:13.477Z,21.83
2017-10-20T10:53:41.159Z,22.51
2017-10-20T10:56:09.464Z,24.04
2017-10-20T10:58:38.583Z,25.56
2017-10-20T11:01:06.428Z,24.51
2017-10-20T11:03:34.110Z,23.95
2017-10-20T11:06:13.432Z,23.43
2017-10-20T11:08:52.965Z,23.63
2017-10-20T11:11:32.508Z,23.74
2017-10-20T11:14:00.093Z,23.50
2017-10-20T11:16:27.789Z,23.14
2017-10-20T11:18:56.630Z,22.80
2017-10-20T11:21:24.344Z,22.76
2017-10-20T11:23:52.978Z,22.46
2017-10-20T11:26:21.609Z,22.58
2017-10-20T11:28:49.436Z,22.53
2017-10-20T11:31:17.110Z,22.33
2017-10-20T11:33:44.854Z,22.24
2017-10-20T11:36:12.614Z,21.87
2017-10-20T11:38:40.259Z,21.95
2017-10-20T11:41:08.663Z,21.84
2017-10-20T11:43:36.299Z,22.07
2017-10-20T11:46:03.962Z,22.05
2017-10-20T11:48:31.528Z,22.81
2017-10-20T11:50:59.207Z,23.24
2017-10-20T11:53:27.303Z,23.07
2017-10-20T11:55:56.396Z,22.68
2017-10-20T11:58:24.957Z,22.76
2017-10-20T12:00:53.502Z,22.77
2017-10-20T12:03:21.151Z,22.49
2017-10-20T12:05:48.687Z,22.26
2017-10-20T12:08:16.224Z,22.25
2017-10-20T12:10:43.727Z,22.39
2017-10-20T12:13:11.504Z,22.49
2017-10-20T12:15:39.078Z,22.21
2017-10-20T12:18:06.722Z,22.30
2017-10-20T12:20:34.329Z,22.18
2017-10-20T12:23:01.849Z,21.97
2017-10-20T12:25:29.611Z,22.04
2017-10-20T12:27:57.207Z,21.59
2017-10-20T12:30:24.705Z,21.61
2017-10-20T12:32:52.337Z,21.40
2017-10-20T12:35:20.389Z,21.46
2017-10-20T12:37:48.092Z,21.61
2017-10-20T12:40:15.677Z,21.59
2017-10-20T12:42:43.229Z,21.49
2017-10-20T12:45:10.829Z,21.31
2017-10-20T12:47:39.356Z,20.84
2017-10-20T12:50:07.136Z,20.94
2017-10-20T12:52:35.993Z,20.90
2017-10-20T12:55:03.595Z,20.84
2017-10-20T12:57:31.128Z,20.69
2017-10-20T12:59:58.669Z,20.84
2017-10-20T13:02:27.188Z,20.83
2017-10-20T13:04:54.881Z,20.62
2017-10-20T13:07:22.415Z,20.57
2017-10-20T13:09:50.025Z,20.62
2017-10-20T13:12:18.430Z,20.27
2017-10-20T13:14:47.296Z,20.47
2017-10-20T13:17:15.097Z,20.43
2017-10-20T13:19:42.883Z,20.34
2017-10-20T13:22:10.519Z,20.17
2017-10-20T13:24:38.278Z,20.22
2017-10-20T13:27:06.154Z,20.26
2017-10-20T13:29:33.693Z,20.21
2017-10-20T13:32:01.205Z,20.17
2017-10-20T13:34:28.744Z,20.29
2017-10-20T13:36:56.260Z,20.18
2017-10-20T13:39:23.865Z,20.01
2017-10-20T13:41:52.465Z,20.06
2017-10-20T13:44:20.063Z,20.18
2017-10-20T13:46:47.728Z,20.04
2017-10-20T13:49:15.279Z,19.90
2017-10-20T13:51:42.838Z,19.95
2017-10-20T13:54:10.716Z,20.01
2017-10-20T13:56:38.240Z,19.64
2017-10-20T13:59:05.775Z,19.87
2017-10-20T14:01:33.295Z,19.78
2017-10-20T14:04:01.378Z,19.83
2017-10-20T14:06:28.967Z,19.76
2017-10-20T14:08:56.570Z,19.96
2017-10-20T14:11:24.129Z,19.96
2017-10-20T14:13:51.705Z,20.04
2017-10-20T14:16:19.425Z,20.08
2017-10-20T14:18:47.104Z,19.97
2017-10-20T14:21:14.616Z,19.94
2017-10-20T14:23:42.168Z,19.64
2017-10-20T14:26:09.722Z,19.53
2017-10-20T14:28:37.326Z,19.44
2017-10-20T14:31:04.863Z,19.53
2017-10-20T14:33:33.417Z,19.50
2017-10-20T14:36:01.368Z,19.29
2017-10-20T14:38:28.880Z,19.50
2017-10-20T14:40:56.451Z,19.46
2017-10-20T14:43:23.998Z,19.33
2017-10-20T14:45:51.798Z,19.15
2017-10-20T14:48:19.366Z,19.26
2017-10-20T14:50:46.919Z,19.31
2017-10-20T14:53:14.456Z,19.39
2017-10-20T14:55:41.999Z,19.51
2017-10-20T14:58:09.507Z,19.60
2017-10-20T15:00:38.106Z,19.56
2017-10-20T15:03:05.665Z,19.58
2017-10-20T15:05:33.903Z,19.45
2017-10-20T15:08:01.442Z,19.47
2017-10-20T15:10:29.035Z,19.50
2017-10-20T15:12:56.537Z,19.48
2017-10-20T15:15:25.033Z,19.46
2017-10-20T15:17:52.653Z,19.41
2017-10-20T15:20:20.237Z,19.45
2017-10-20T15:22:47.720Z,19.47
2017-10-20T15:25:15.268Z,19.34
2017-10-20T15:27:42.776Z,19.41
2017-10-20T15:30:10.373Z,19.23
2017-10-20T15:32:37.971Z,19.24
2017-10-20T15:35:05.550Z,19.14
2017-10-20T15:37:33.065Z,19.22
2017-10-20T15:40:00.559Z,19.29
2017-10-20T15:42:28.082Z,19.12
2017-10-20T15:44:56.497Z,19.17
2017-10-20T15:47:24.039Z,19.15
2017-10-20T15:49:52.393Z,18.85
2017-10-20T15:52:19.928Z,19.04
2017-10-20T15:54:47.507Z,18.98
2017-10-20T15:57:15.048Z,19.11
2017-10-20T15:59:42.649Z,19.20
2017-10-20T16:02:11.233Z,19.16
2017-10-20T16:04:38.753Z,19.15
2017-10-20T16:07:06.333Z,19.20
2017-10-20T16:09:33.888Z,19.27
2017-10-20T16:12:01.413Z,19.01
2017-10-20T16:14:28.979Z,18.75
2017-10-20T16:16:56.532Z,18.82
2017-10-20T16:19:25.447Z,18.78
2017-10-20T16:21:53.249Z,18.56
2017-10-20T16:24:21.453Z,18.57
2017-10-20T16:26:49.154Z,18.61
2017-10-20T16:29:16.706Z,18.55
2017-10-20T16:31:44.408Z,18.59
2017-10-20T16:34:12.026Z,18.50
2017-10-20T16:36:39.631Z,18.29
2017-10-20T16:39:07.160Z,18.19
2017-10-20T16:41:37.093Z,18.31
2017-10-20T16:44:05.130Z,18.31
2017-10-20T16:46:33.603Z,18.36
2017-10-20T16:49:02.367Z,18.37
2017-10-20T16:51:30.033Z,18.34
2017-10-20T16:53:58.192Z,18.26
2017-10-20T16:56:26.777Z,18.31
2017-10-20T16:58:55.635Z,18.15
2017-10-20T17:01:24.672Z,18.15
2017-10-20T17:03:53.679Z,18.19
2017-10-20T17:06:22.304Z,18.15
2017-10-20T17:08:50.260Z,18.24
2017-10-20T17:11:18.979Z,18.29
2017-10-20T17:13:47.080Z,18.24
2017-10-20T17:16:15.126Z,17.91
2017-10-20T17:18:46.093Z,18.11
2017-10-20T17:21:15.382Z,18.09
2017-10-20T17:23:43.467Z,18.26
2017-10-20T17:26:12.473Z,18.38
2017-10-20T17:28:40.311Z,18.30
2017-10-20T17:31:08.215Z,18.34
2017-10-20T17:33:35.864Z,18.23
2017-10-20T17:36:03.754Z,18.17
2017-10-20T17:38:31.941Z,18.18
2017-10-20T17:41:00.239Z,18.25
2017-10-20T17:43:28.069Z,18.32
2017-10-20T17:45:55.858Z,18.40
2017-10-20T17:48:23.773Z,18.10
2017-10-20T17:50:52.516Z,18.10
2017-10-20T17:53:20.827Z,18.07
2017-10-20T17:55:48.518Z,18.14
2017-10-20T17:58:16.684Z,18.55
2017-10-20T18:00:44.458Z,18.46
2017-10-20T18:03:12.121Z,18.60
2017-10-20T18:05:39.882Z,18.62
2017-10-20T18:08:07.722Z,18.30
2017-10-20T18:10:36.369Z,18.36
2017-10-20T18:13:06.005Z,18.47
2017-10-20T18:15:33.882Z,18.57
2017-10-20T18:18:02.783Z,18.34
2017-10-20T18:20:31.350Z,18.62
2017-10-20T18:22:59.168Z,18.65
2017-10-20T18:25:27.313Z,18.63
2017-10-20T18:27:55.155Z,18.65
2017-10-20T18:30:24.606Z,18.64
2017-10-20T18:32:52.261Z,18.60
2017-10-20T18:35:22.306Z,18.54
2017-10-20T18:37:51.992Z,18.44
2017-10-20T18:40:21.069Z,18.40
2017-10-20T18:42:50.258Z,18.37
2017-10-20T18:45:17.979Z,18.40
2017-10-20T18:47:46.147Z,18.41
2017-10-20T18:50:14.684Z,18.47
2017-10-20T18:52:42.681Z,18.49
2017-10-20T18:55:11.645Z,18.51
2017-10-20T18:57:39.722Z,18.53
2017-10-20T19:00:08.480Z,18.55
2017-10-20T19:02:36.417Z,18.57
2017-10-20T19:05:05.109Z,18.52
2017-10-20T19:07:33.312Z,18.52
2017-10-20T19:10:01.032Z,18.40
2017-10-20T19:12:29.412Z,18.43
2017-10-20T19:14:58.352Z,18.39
2017-10-20T19:17:26.006Z,18.14
2017-10-20T19:19:53.643Z,18.47
2017-10-20T19:22:23.127Z,18.46
2017-10-20T19:24:52.500Z,18.45
2017-10-20T19:27:20.547Z,18.52
2017-10-20T19:29:48.273Z,18.49
2017-10-20T19:32:16.142Z,18.43
2017-10-20T19:34:44.807Z,18.38
2017-10-20T19:37:12.395Z,18.43
2017-10-20T19:39:40.000Z,18.41
2017-10-20T19:42:09.204Z,18.42
2017-10-20T19:44:36.738Z,18.37
2017-10-20T19:47:04.520Z,18.40
2017-10-20T19:49:32.298Z,18.40
2017-10-20T19:52:00.751Z,18.39
2017-10-20T19:54:29.360Z,18.45
2017-10-20T19:56:57.612Z,18.45
2017-10-20T19:59:25.189Z,18.44
2017-10-20T20:01:55.949Z,18.38
2017-10-20T20:04:23.640Z,18.23
2017-10-20T20:06:51.159Z,18.07
2017-10-20T20:09:19.888Z,18.09
2017-10-20T20:11:47.636Z,17.91
2017-10-20T20:14:15.353Z,17.78
2017-10-20T20:16:42.987Z,17.74
2017-10-20T20:19:12.916Z,17.82
2017-10-20T20:21:40.711Z,17.65
2017-10-20T20:24:08.807Z,17.65
2017-10-20T20:26:37.362Z,17.64
2017-10-20T20:29:04.912Z,17.52
2017-10-20T20:31:38.994Z,17.50
2017-10-20T20:34:16.730Z,17.48
2017-10-20T20:36:44.242Z,17.53
2017-10-20T20:39:12.864Z,17.48
2017-10-20T20:41:41.971Z,17.43
2017-10-20T20:44:10.547Z,17.53
2017-10-20T20:46:38.357Z,17.02
2017-10-20T20:49:06.917Z,17.31
2017-10-20T20:51:35.790Z,17.36
2017-10-20T20:54:03.398Z,17.26
2017-10-20T20:56:31.093Z,17.36
2017-10-20T20:58:58.727Z,17.37
2017-10-20T21:01:26.376Z,17.40
2017-10-20T21:03:54.092Z,17.45
2017-10-20T21:06:21.891Z,17.45
2017-10-20T21:08:51.008Z,17.41
2017-10-20T21:11:18.746Z,17.34
2017-10-20T21:13:46.545Z,17.23
2017-10-20T21:16:14.278Z,17.28
2017-10-20T21:18:42.831Z,17.26
2017-10-20T21:21:12.218Z,17.22
2017-10-20T21:23:39.999Z,17.10
2017-10-20T21:26:08.555Z,17.13
2017-10-20T21:28:36.362Z,17.07
2017-10-20T21:31:04.355Z,16.97
2017-10-20T21:33:32.082Z,17.00
2017-10-20T21:35:59.757Z,16.95
2017-10-20T21:38:28.707Z,16.84
2017-10-20T21:40:56.496Z,16.82
2017-10-20T21:43:24.195Z,16.38
2017-10-20T21:45:52.626Z,16.96
2017-10-20T21:48:20.209Z,16.93
2017-10-20T21:50:47.860Z,16.92
2017-10-20T21:53:16.039Z,16.93
2017-10-20T21:55:43.584Z,16.76
2017-10-20T21:58:11.201Z,16.67
2017-10-20T22:00:38.791Z,16.65
2017-10-20T22:03:07.206Z,16.57
2017-10-20T22:05:34.807Z,16.62
2017-10-20T22:08:02.490Z,16.61
2017-10-20T22:10:30.085Z,16.65
2017-10-20T22:12:57.618Z,16.46
2017-10-20T22:15:26.331Z,16.45
2017-10-20T22:17:53.930Z,16.49
2017-10-20T22:20:22.274Z,16.53
2017-10-20T22:22:49.927Z,16.36
2017-10-20T22:25:17.845Z,16.42
2017-10-20T22:27:47.214Z,16.38
2017-10-20T22:30:15.690Z,16.38
2017-10-20T22:32:44.261Z,16.46
2017-10-20T22:35:13.188Z,16.41
2017-10-20T22:37:43.804Z,16.39
2017-10-20T22:40:13.027Z,16.38
2017-10-20T22:42:41.376Z,16.47
2017-10-20T22:45:09.117Z,16.52
2017-10-20T22:47:36.714Z,16.31
2017-10-20T22:50:04.299Z,16.43
2017-10-20T22:52:31.930Z,16.50
2017-10-20T22:54:59.615Z,16.35
2017-10-20T22:57:27.283Z,16.48
2017-10-20T22:59:54.988Z,16.48
2017-10-20T23:02:22.919Z,16.40
2017-10-20T23:04:50.540Z,16.46
2017-10-20T23:07:18.179Z,16.51
2017-10-20T23:09:45.847Z,16.43
2017-10-20T23:12:13.756Z,16.43
2017-10-20T23:14:42.158Z,16.51
2017-10-20T23:17:10.011Z,16.52
2017-10-20T23:19:37.613Z,16.13
2017-10-20T23:22:05.856Z,16.45
2017-10-20T23:24:34.707Z,16.55
2017-10-20T23:27:03.269Z,16.50
2017-10-20T23:29:31.968Z,16.56
2017-10-20T23:31:59.615Z,16.49
2017-10-20T23:34:27.996Z,16.53
2017-10-20T23:36:55.599Z,16.47
2017-10-20T23:39:24.339Z,16.53
2017-10-20T23:41:53.012Z,16.46
2017-10-20T23:44:20.570Z,16.30
2017-10-20T23:46:49.062Z,16.22
2017-10-20T23:49:16.659Z,16.26
2017-10-20T23:51:44.621Z,16.29
2017-10-20T23:54:12.246Z,16.33
2017-10-20T23:56:40.041Z,16.29
2017-10-20T23:59:07.634Z,16.39
